Terminal Aerodrome Forecast
Issued by NWS Newport/Morehead City, NC

Home | Current Version | Previous Version | Text Only | Print | Product List | Glossary Off
Versions: 1 2 3 4 5 6 7 8 9 10 11 12 13 14 15 16

959
FTUS42 KMHX 041615 AAA
TAFEWN
TAF AMD
KEWN 041615Z 0416/0512 19010KT 5SM RA SCT007 OVC025
      TEMPO 0417/0421 BKN007
     FM042100 01011KT 4SM -RA OVC007
     FM050000 03009KT 4SM -RA BR OVC005
     FM050600 36015G22KT 6SM -RA BR OVC007=

USA.gov is the U.S. government's official web portal to all federal, state and local government web resources and services.